Weather History for Lexington, NC

Change the Weather History Date:

Sunday, March 3, 2013

  Actual Average (KINT) Record (KINT)
Temperature  
Mean Temperature 36 °F -  
Max Temperature 44 °F 54 °F 81 °F (1976)
Min Temperature 29 °F 35 °F 4 °F (1980)
Degree Days  
Heating Degree Days 29    
Moisture  
Dew Point 16 °F    
Average Humidity 49    
Maximum Humidity 61    
Minimum Humidity 35    
Precipitation  
Precipitation 0.00 in - - ()
Sea Level Pressure  
Sea Level Pressure 29.93 in    
Wind  
Wind Speed 5 mph (NW)    
Max Wind Speed 9 mph    
Max Gust Speed 16 mph    
Visibility 10 miles    
Events      
Averages and records for this station are not official NWS values.
T = Trace of Precipitation, MM = Missing Value Source: NWS Daily Summary

Daily Weather History Graph

Daily Weather History Graph

Search for Another Location

Airport:

Trip Planner

Search our weather history database for the weather conditions in past years. The results will help you decide how hot, cold, wet, or windy it might be!

Date:

Astronomy

Mar. 03, 2013 Rise Set
Actual Time 6:48 AM EST 6:18 PM EST
Civil Twilight 6:22 AM EST 6:44 PM EST
Nautical Twilight 5:53 AM EST 7:13 PM EST
Astronomical Twilight 5:23 AM EST 7:43 PM EST
Moon No Moon Rise 10:15 AM EST (3/3)
Length of Visible Light 12h 21m
Length of Day
11h 30m
Waning Gibbous, 64% of the Moon is Illuminated
Mar 3
Waning Gibbous
Mar 4
Last Quarter
Mar 11
New
Mar 19
First Quarter
Mar 27
Full

Hourly Weather History & Observations

Time (EST) Temp. Windchill Dew Point Humidity Pressure Visibility Wind Dir Wind Speed Gust Speed Precip Events Conditions
12:15 AM 32.2 °F 27.7 °F 18.3 °F 57% 29.93 in 10.0 mi WNW 4.6 mph - N/A   Mostly Cloudy
12:35 AM 32.0 °F 28.7 °F 17.8 °F 56% 29.92 in 10.0 mi WNW 3.5 mph - N/A   Mostly Cloudy
12:55 AM 31.3 °F 26.6 °F 17.4 °F 57% 29.92 in 10.0 mi NNW 4.6 mph - N/A   Scattered Clouds
1:15 AM 30.6 °F 27.1 °F 17.6 °F 59% 29.92 in 10.0 mi NW 3.5 mph - N/A   Clear
1:35 AM 30.2 °F - 17.6 °F 60% 29.93 in 10.0 mi Calm Calm - N/A   Mostly Cloudy
1:55 AM 30.2 °F 26.7 °F 18.0 °F 60% 29.92 in 10.0 mi WNW 3.5 mph - N/A   Overcast
2:35 AM 30.0 °F 26.5 °F 18.0 °F 61% 29.91 in 10.0 mi West 3.5 mph - N/A   Overcast
2:55 AM 29.8 °F 23.9 °F 17.2 °F 59% 29.91 in 10.0 mi NW 5.8 mph - N/A   Scattered Clouds
3:15 AM 30.6 °F 25.8 °F 16.7 °F 56% 29.90 in 10.0 mi NNW 4.6 mph - N/A   Mostly Cloudy
3:35 AM 30.9 °F 26.2 °F 16.7 °F 56% 29.90 in 10.0 mi North 4.6 mph - N/A   Overcast
3:55 AM 30.9 °F - 16.7 °F 56% 29.90 in 10.0 mi Calm Calm - N/A   Overcast
4:15 AM 30.9 °F - 16.7 °F 56% 29.90 in 10.0 mi Calm Calm - N/A   Overcast
4:35 AM 31.1 °F 24.5 °F 16.3 °F 54% 29.91 in 10.0 mi NNW 6.9 mph - N/A   Overcast
4:55 AM 30.9 °F 25.2 °F 16.5 °F 55% 29.91 in 10.0 mi NNW 5.8 mph - N/A   Overcast
5:15 AM 30.9 °F 27.5 °F 16.7 °F 56% 29.91 in 10.0 mi North 3.5 mph - N/A   Overcast
5:35 AM 31.1 °F 27.7 °F 17.2 °F 57% 29.92 in 10.0 mi North 3.5 mph - N/A   Overcast
5:55 AM 30.9 °F 24.3 °F 16.9 °F 56% 29.92 in 10.0 mi North 6.9 mph - N/A   Overcast
6:15 AM 30.9 °F 26.2 °F 16.7 °F 56% 29.92 in 10.0 mi NNW 4.6 mph - N/A   Overcast
6:35 AM 30.7 °F 26.0 °F 17.1 °F 57% 29.93 in 10.0 mi North 4.6 mph - N/A   Overcast
6:55 AM 30.6 °F 25.8 °F 17.2 °F 58% 29.93 in 10.0 mi NNW 4.6 mph - N/A   Overcast
7:15 AM 30.6 °F 24.7 °F 16.2 °F 55% 29.93 in 10.0 mi NW 5.8 mph - N/A   Mostly Cloudy
7:35 AM 30.7 °F 24.1 °F 15.6 °F 54% 29.94 in 10.0 mi WNW 6.9 mph - N/A   Mostly Cloudy
7:55 AM 31.1 °F 26.4 °F 15.4 °F 52% 29.94 in 10.0 mi NW 4.6 mph - N/A   Scattered Clouds
8:15 AM 31.5 °F 26.8 °F 14.9 °F 50% 29.95 in 10.0 mi WNW 4.6 mph - N/A   Clear
8:35 AM 32.2 °F 25.0 °F 15.1 °F 49% 29.95 in 10.0 mi NW 8.1 mph - N/A   Clear
8:55 AM 32.0 °F 24.8 °F 14.5 °F 49% 29.95 in 10.0 mi NW 8.1 mph - N/A   Clear
9:15 AM 32.7 °F 26.4 °F 14.9 °F 48% 29.95 in 10.0 mi North 6.9 mph - N/A   Clear
9:35 AM 33.4 °F 26.6 °F 15.1 °F 47% 29.95 in 10.0 mi NW 8.1 mph - N/A   Clear
9:55 AM 34.3 °F 29.2 °F 15.8 °F 47% 29.95 in 10.0 mi NNW 5.8 mph - N/A   Clear
10:15 AM 34.9 °F 29.9 °F 15.8 °F 46% 29.95 in 10.0 mi North 5.8 mph - N/A   Clear
10:35 AM 35.2 °F 30.3 °F 15.6 °F 45% 29.94 in 10.0 mi NNW 5.8 mph - N/A   Scattered Clouds
10:55 AM 35.6 °F 31.7 °F 15.6 °F 44% 29.94 in 10.0 mi West 4.6 mph - N/A   Scattered Clouds
11:15 AM 35.6 °F 31.7 °F 15.8 °F 44% 29.94 in 10.0 mi NNW 4.6 mph - N/A   Scattered Clouds
11:35 AM 37.0 °F 31.0 °F 16.3 °F 43% 29.93 in 10.0 mi North 8.1 mph - N/A   Clear
11:55 AM 37.9 °F 35.5 °F 16.5 °F 42% 29.92 in 10.0 mi North 3.5 mph - N/A   Clear
12:15 PM 38.7 °F 34.3 °F 17.1 °F 42% 29.92 in 10.0 mi North 5.8 mph - N/A   Clear
12:35 PM 39.2 °F 34.2 °F 17.2 °F 41% 29.91 in 10.0 mi North 6.9 mph - N/A   Clear
12:55 PM 39.7 °F 34.3 °F 17.1 °F 40% 29.90 in 10.0 mi WNW 8.1 mph - N/A   Clear
1:15 PM 41.5 °F 37.1 °F 17.6 °F 38% 29.89 in 10.0 mi NNW 6.9 mph - N/A   Clear
1:35 PM 41.5 °F 37.1 °F 18.0 °F 39% 29.88 in 10.0 mi NNW 6.9 mph - N/A   Clear
1:55 PM 42.6 °F 38.4 °F 18.0 °F 37% 29.87 in 10.0 mi NW 6.9 mph - N/A   Clear
2:15 PM 42.1 °F 36.6 °F 17.6 °F 37% 29.87 in 10.0 mi NNW 9.2 mph - N/A   Clear
2:55 PM 42.8 °F 38.0 °F 17.6 °F 36% 29.87 in 10.0 mi West 8.1 mph - N/A   Clear
3:15 PM 43.9 °F 38.8 °F 18.0 °F 35% 29.87 in 10.0 mi WNW 9.2 mph - N/A   Clear
3:35 PM 43.5 °F 38.9 °F 18.3 °F 36% 29.87 in 10.0 mi NW 8.1 mph 16.1 mph N/A   Clear
3:55 PM 43.3 °F 40.7 °F 18.3 °F 37% 29.87 in 10.0 mi North 4.6 mph - N/A   Scattered Clouds
4:15 PM 41.7 °F 38.0 °F 18.0 °F 38% 29.87 in 10.0 mi WNW 5.8 mph - N/A   Clear
4:35 PM 42.3 °F 39.4 °F 18.3 °F 38% 29.88 in 10.0 mi NNW 4.6 mph - N/A   Clear
4:55 PM 41.4 °F 37.6 °F 18.0 °F 39% 29.88 in 10.0 mi NW 5.8 mph - N/A   Clear
5:15 PM 40.8 °F 35.0 °F 17.8 °F 40% 29.89 in 10.0 mi WNW 9.2 mph - N/A   Clear
5:35 PM 40.1 °F 35.3 °F 16.5 °F 39% 29.90 in 10.0 mi WNW 6.9 mph - N/A   Clear
6:15 PM 37.8 °F 34.2 °F 15.6 °F 41% 29.91 in 10.0 mi WNW 4.6 mph - N/A   Clear
6:35 PM 36.5 °F - 16.5 °F 44% 29.92 in 10.0 mi Calm Calm - N/A   Clear
6:55 PM 35.1 °F - 16.7 °F 47% 29.93 in 10.0 mi Calm Calm - N/A   Clear
7:35 PM 34.2 °F 31.2 °F 16.5 °F 49% 29.94 in 10.0 mi WNW 3.5 mph - N/A   Clear
7:55 PM 33.3 °F 27.9 °F 16.5 °F 50% 29.95 in 10.0 mi NW 5.8 mph - N/A   Clear
8:15 PM 32.5 °F 28.1 °F 16.2 °F 51% 29.96 in 10.0 mi NW 4.6 mph - N/A   Clear
8:35 PM 32.0 °F 27.5 °F 15.6 °F 51% 29.96 in 10.0 mi NW 4.6 mph - N/A   Clear
8:55 PM 32.0 °F 27.5 °F 15.3 °F 50% 29.96 in 10.0 mi NW 4.6 mph - N/A   Clear
9:15 PM 31.8 °F 28.5 °F 14.9 °F 50% 29.97 in 10.0 mi NNW 3.5 mph - N/A   Clear
9:35 PM 31.1 °F 27.7 °F 14.9 °F 51% 29.97 in 10.0 mi NW 3.5 mph - N/A   Clear
9:55 PM 31.1 °F 25.4 °F 14.7 °F 51% 29.98 in 10.0 mi NW 5.8 mph - N/A   Clear
10:15 PM 30.9 °F 27.5 °F 14.5 °F 51% 29.99 in 10.0 mi NW 3.5 mph - N/A   Clear
10:35 PM 30.6 °F 25.8 °F 14.7 °F 52% 29.99 in 10.0 mi NW 4.6 mph - N/A   Clear
10:55 PM 30.2 °F - 14.2 °F 51% 29.99 in 10.0 mi Calm Calm - N/A   Clear
11:15 PM 30.6 °F 24.7 °F 13.5 °F 49% 29.99 in 10.0 mi NW 5.8 mph - N/A   Clear
11:35 PM 30.2 °F - 13.1 °F 49% 29.99 in 10.0 mi Calm Calm - N/A   Clear
11:55 PM 29.3 °F - 13.1 °F 51% 29.99 in 10.0 mi Calm Calm - N/A   Clear